sensor_id;sensor_type;location;lat;lon;timestamp;pressure;altitude;pressure_sealevel;temperature;humidity
75063;BME280;63981;51.052;13.754;2023-02-18T00:01:02;100628.47;;;9.19;76.70
75063;BME280;63981;51.052;13.754;2023-02-18T00:03:33;100633.44;;;9.25;76.63
75063;BME280;63981;51.052;13.754;2023-02-18T00:05:59;100629.78;;;9.43;76.04
75063;BME280;63981;51.052;13.754;2023-02-18T00:08:25;100641.50;;;9.38;76.29
75063;BME280;63981;51.052;13.754;2023-02-18T00:10:52;100607.53;;;9.33;76.30
75063;BME280;63981;51.052;13.754;2023-02-18T00:13:18;100580.69;;;9.11;75.55
75063;BME280;63981;51.052;13.754;2023-02-18T00:15:45;100620.69;;;9.49;75.57
75063;BME280;63981;51.052;13.754;2023-02-18T00:18:11;100626.97;;;9.62;75.59
75063;BME280;63981;51.052;13.754;2023-02-18T00:20:38;100616.88;;;9.39;75.94
75063;BME280;63981;51.052;13.754;2023-02-18T00:23:04;100626.69;;;9.20;76.66
75063;BME280;63981;51.052;13.754;2023-02-18T00:25:30;100628.84;;;9.44;76.41
75063;BME280;63981;51.052;13.754;2023-02-18T00:27:57;100614.41;;;9.20;76.77
75063;BME280;63981;51.052;13.754;2023-02-18T00:30:23;100632.41;;;9.28;76.75
75063;BME280;63981;51.052;13.754;2023-02-18T00:32:49;100624.59;;;9.42;75.94
75063;BME280;63981;51.052;13.754;2023-02-18T00:35:15;100632.69;;;9.55;75.51
75063;BME280;63981;51.052;13.754;2023-02-18T00:37:43;100625.38;;;9.28;76.20
75063;BME280;63981;51.052;13.754;2023-02-18T00:40:09;100625.53;;;9.41;75.96
75063;BME280;63981;51.052;13.754;2023-02-18T00:42:36;100635.72;;;9.31;76.41
75063;BME280;63981;51.052;13.754;2023-02-18T00:45:02;100634.78;;;9.32;76.42
75063;BME280;63981;51.052;13.754;2023-02-18T00:47:28;100628.09;;;9.27;76.17
75063;BME280;63981;51.052;13.754;2023-02-18T00:49:54;100630.38;;;9.33;76.06
75063;BME280;63981;51.052;13.754;2023-02-18T00:52:21;100635.22;;;9.25;76.23
75063;BME280;63981;51.052;13.754;2023-02-18T00:54:47;100634.75;;;9.16;76.69
75063;BME280;63981;51.052;13.754;2023-02-18T00:57:13;100628.75;;;9.14;76.77
75063;BME280;63981;51.052;13.754;2023-02-18T00:59:39;100615.50;;;9.16;76.09
75063;BME280;63981;51.052;13.754;2023-02-18T01:02:06;100633.38;;;9.09;76.54
75063;BME280;63981;51.052;13.754;2023-02-18T01:04:32;100633.91;;;9.16;76.03
75063;BME280;63981;51.052;13.754;2023-02-18T01:06:58;100635.34;;;9.22;75.67
75063;BME280;63981;51.052;13.754;2023-02-18T01:09:25;100630.53;;;9.14;75.80
75063;BME280;63981;51.052;13.754;2023-02-18T01:11:51;100633.09;;;8.98;75.62
75063;BME280;63981;51.052;13.754;2023-02-18T01:14:17;100647.91;;;8.83;76.11
75063;BME280;63981;51.052;13.754;2023-02-18T01:16:43;100606.66;;;8.68;75.76
75063;BME280;63981;51.052;13.754;2023-02-18T01:19:10;100641.66;;;8.69;76.31
75063;BME280;63981;51.052;13.754;2023-02-18T01:21:38;100605.22;;;8.45;75.98
75063;BME280;63981;51.052;13.754;2023-02-18T01:24:04;100614.09;;;8.60;75.61
75063;BME280;63981;51.052;13.754;2023-02-18T01:26:31;100646.06;;;8.68;76.01
75063;BME280;63981;51.052;13.754;2023-02-18T01:28:57;100606.72;;;8.32;76.37
75063;BME280;63981;51.052;13.754;2023-02-18T01:31:23;100636.19;;;8.56;75.87
75063;BME280;63981;51.052;13.754;2023-02-18T01:33:50;100616.72;;;8.43;75.83
75063;BME280;63981;51.052;13.754;2023-02-18T01:36:17;100598.94;;;8.31;75.64
75063;BME280;63981;51.052;13.754;2023-02-18T01:38:43;100632.66;;;8.40;76.44
75063;BME280;63981;51.052;13.754;2023-02-18T01:41:09;100634.09;;;8.28;76.18
75063;BME280;63981;51.052;13.754;2023-02-18T01:43:36;100622.72;;;8.10;76.34
75063;BME280;63981;51.052;13.754;2023-02-18T01:48:52;100633.06;;;7.96;76.55
75063;BME280;63981;51.052;13.754;2023-02-18T01:51:27;100630.63;;;7.74;77.39
75063;BME280;63981;51.052;13.754;2023-02-18T01:54:05;100638.56;;;7.73;77.82
75063;BME280;63981;51.052;13.754;2023-02-18T01:56:44;100641.13;;;7.74;77.71
75063;BME280;63981;51.052;13.754;2023-02-18T01:59:19;100633.31;;;7.73;77.23
75063;BME280;63981;51.052;13.754;2023-02-18T02:01:46;100637.13;;;7.65;77.40
75063;BME280;63981;51.052;13.754;2023-02-18T02:04:12;100608.88;;;7.53;78.24
75063;BME280;63981;51.052;13.754;2023-02-18T02:06:41;100630.69;;;7.73;78.04
75063;BME280;63981;51.052;13.754;2023-02-18T02:09:09;100629.28;;;7.65;78.01
75063;BME280;63981;51.052;13.754;2023-02-18T02:17:31;100607.66;;;7.60;78.56
75063;BME280;63981;51.052;13.754;2023-02-18T02:30:55;100639.09;;;7.98;77.76
75063;BME280;63981;51.052;13.754;2023-02-18T02:33:32;100644.25;;;7.99;77.09
75063;BME280;63981;51.052;13.754;2023-02-18T02:36:08;100639.44;;;7.90;77.46
75063;BME280;63981;51.052;13.754;2023-02-18T02:38:50;100640.03;;;7.78;77.91
75063;BME280;63981;51.052;13.754;2023-02-18T02:46:45;100629.28;;;7.65;77.97
75063;BME280;63981;51.052;13.754;2023-02-18T02:52:07;100645.69;;;7.88;76.92
75063;BME280;63981;51.052;13.754;2023-02-18T02:54:34;100650.03;;;8.06;76.54
75063;BME280;63981;51.052;13.754;2023-02-18T02:57:09;100644.81;;;8.23;76.34
75063;BME280;63981;51.052;13.754;2023-02-18T03:00:06;100633.94;;;8.66;73.23
75063;BME280;63981;51.052;13.754;2023-02-18T03:11:21;100627.31;;;8.92;69.41
75063;BME280;63981;51.052;13.754;2023-02-18T03:14:38;100635.13;;;8.93;69.09
75063;BME280;63981;51.052;13.754;2023-02-18T03:17:01;100642.44;;;8.88;68.44
75063;BME280;63981;51.052;13.754;2023-02-18T03:19:32;100643.75;;;9.12;67.61
75063;BME280;63981;51.052;13.754;2023-02-18T03:22:06;100646.88;;;9.03;67.45
75063;BME280;63981;51.052;13.754;2023-02-18T03:24:39;100645.84;;;9.06;66.36
75063;BME280;63981;51.052;13.754;2023-02-18T03:27:29;100637.00;;;8.91;67.48
75063;BME280;63981;51.052;13.754;2023-02-18T03:30:02;100634.53;;;8.88;67.58
75063;BME280;63981;51.052;13.754;2023-02-18T03:32:30;100634.44;;;8.90;67.29
75063;BME280;63981;51.052;13.754;2023-02-18T03:35:00;100637.56;;;9.13;66.54
75063;BME280;63981;51.052;13.754;2023-02-18T03:37:31;100643.41;;;9.19;65.96
75063;BME280;63981;51.052;13.754;2023-02-18T03:40:01;100615.41;;;8.84;66.73
75063;BME280;63981;51.052;13.754;2023-02-18T03:42:28;100633.09;;;8.98;67.19
75063;BME280;63981;51.052;13.754;2023-02-18T03:44:55;100633.91;;;8.83;66.90
75063;BME280;63981;51.052;13.754;2023-02-18T03:47:23;100634.53;;;8.88;67.59
75063;BME280;63981;51.052;13.754;2023-02-18T03:49:49;100598.47;;;8.74;67.75
75063;BME280;63981;51.052;13.754;2023-02-18T03:52:16;100631.91;;;8.88;67.91
75063;BME280;63981;51.052;13.754;2023-02-18T03:54:42;100598.75;;;8.85;68.12
75063;BME280;63981;51.052;13.754;2023-02-18T03:57:08;100629.88;;;8.93;67.95
75063;BME280;63981;51.052;13.754;2023-02-18T03:59:34;100575.16;;;8.34;68.26
75063;BME280;63981;51.052;13.754;2023-02-18T04:02:00;100630.63;;;8.62;69.55
75063;BME280;63981;51.052;13.754;2023-02-18T04:04:28;100646.63;;;8.57;69.48
75063;BME280;63981;51.052;13.754;2023-02-18T04:06:54;100648.25;;;8.60;70.00
75063;BME280;63981;51.052;13.754;2023-02-18T04:09:20;100612.09;;;8.48;70.10
75063;BME280;63981;51.052;13.754;2023-02-18T04:11:46;100634.03;;;8.64;69.82
75063;BME280;63981;51.052;13.754;2023-02-18T04:14:13;100656.28;;;8.74;69.54
75063;BME280;63981;51.052;13.754;2023-02-18T04:16:40;100653.16;;;8.83;69.73
75063;BME280;63981;51.052;13.754;2023-02-18T04:19:06;100649.56;;;8.69;69.31
75063;BME280;63981;51.052;13.754;2023-02-18T04:21:33;100632.31;;;8.46;70.08
75063;BME280;63981;51.052;13.754;2023-02-18T04:23:59;100663.22;;;8.58;70.15
75063;BME280;63981;51.052;13.754;2023-02-18T04:26:26;100657.00;;;8.61;70.55
75063;BME280;63981;51.052;13.754;2023-02-18T04:28:52;100653.34;;;8.46;70.51
75063;BME280;63981;51.052;13.754;2023-02-18T04:31:19;100651.75;;;8.61;70.62
75063;BME280;63981;51.052;13.754;2023-02-18T04:33:45;100621.13;;;8.60;70.12
75063;BME280;63981;51.052;13.754;2023-02-18T04:36:11;100652.09;;;8.88;69.99
75063;BME280;63981;51.052;13.754;2023-02-18T04:38:37;100649.88;;;8.63;70.25
75063;BME280;63981;51.052;13.754;2023-02-18T04:41:04;100638.97;;;8.53;70.67
75063;BME280;63981;51.052;13.754;2023-02-18T04:43:30;100588.97;;;8.03;71.59
75063;BME280;63981;51.052;13.754;2023-02-18T04:45:56;100625.13;;;8.15;72.22
75063;BME280;63981;51.052;13.754;2023-02-18T04:48:22;100620.53;;;8.37;71.70
75063;BME280;63981;51.052;13.754;2023-02-18T04:50:48;100649.66;;;8.50;72.74
75063;BME280;63981;51.052;13.754;2023-02-18T04:53:15;100617.84;;;8.20;72.56
75063;BME280;63981;51.052;13.754;2023-02-18T04:55:41;100644.13;;;8.89;71.92
75063;BME280;63981;51.052;13.754;2023-02-18T04:58:07;100646.28;;;8.81;72.55
75063;BME280;63981;51.052;13.754;2023-02-18T05:00:35;100644.72;;;8.94;71.82
75063;BME280;63981;51.052;13.754;2023-02-18T05:03:01;100641.06;;;8.97;71.52
75063;BME280;63981;51.052;13.754;2023-02-18T05:05:28;100637.16;;;8.88;71.99
75063;BME280;63981;51.052;13.754;2023-02-18T05:07:54;100640.94;;;8.82;71.65
75063;BME280;63981;51.052;13.754;2023-02-18T05:10:20;100646.78;;;9.05;70.90
75063;BME280;63981;51.052;13.754;2023-02-18T05:12:46;100635.56;;;8.85;71.59
75063;BME280;63981;51.052;13.754;2023-02-18T05:15:12;100644.97;;;8.72;71.93
75063;BME280;63981;51.052;13.754;2023-02-18T05:17:39;100642.00;;;8.63;72.40
75063;BME280;63981;51.052;13.754;2023-02-18T05:20:06;100630.63;;;8.62;72.31
75063;BME280;63981;51.052;13.754;2023-02-18T05:22:32;100623.13;;;9.05;71.23
75063;BME280;63981;51.052;13.754;2023-02-18T05:24:58;100616.59;;;8.79;71.87
75063;BME280;63981;51.052;13.754;2023-02-18T05:27:25;100630.09;;;8.73;72.09
75063;BME280;63981;51.052;13.754;2023-02-18T05:29:51;100620.34;;;8.57;72.55
75063;BME280;63981;51.052;13.754;2023-02-18T05:32:17;100495.84;;;7.92;71.60
75063;BME280;63981;51.052;13.754;2023-02-18T05:34:43;100611.16;;;8.66;72.56
75063;BME280;63981;51.052;13.754;2023-02-18T05:37:09;100613.91;;;8.80;72.25
75063;BME280;63981;51.052;13.754;2023-02-18T05:39:36;100597.41;;;8.61;72.50
75063;BME280;63981;51.052;13.754;2023-02-18T05:42:02;100604.09;;;8.67;72.50
75063;BME280;63981;51.052;13.754;2023-02-18T05:44:28;100601.81;;;8.61;73.08
75063;BME280;63981;51.052;13.754;2023-02-18T05:46:56;100575.84;;;8.20;73.48
75063;BME280;63981;51.052;13.754;2023-02-18T05:49:23;100604.94;;;8.34;74.32
75063;BME280;63981;51.052;13.754;2023-02-18T05:51:49;100612.63;;;8.54;74.13
75063;BME280;63981;51.052;13.754;2023-02-18T05:54:16;100599.25;;;8.59;74.00
75063;BME280;63981;51.052;13.754;2023-02-18T05:56:42;100587.66;;;8.63;74.04
75063;BME280;63981;51.052;13.754;2023-02-18T05:59:08;100583.56;;;8.57;74.20
75063;BME280;63981;51.052;13.754;2023-02-18T06:01:34;100596.47;;;8.62;74.10
75063;BME280;63981;51.052;13.754;2023-02-18T06:04:00;100597.88;;;8.52;75.83
75063;BME280;63981;51.052;13.754;2023-02-18T06:06:27;100593.38;;;8.54;75.34
75063;BME280;63981;51.052;13.754;2023-02-18T06:08:53;100587.13;;;8.56;76.64
75063;BME280;63981;51.052;13.754;2023-02-18T06:11:19;100561.56;;;8.25;76.32
75063;BME280;63981;51.052;13.754;2023-02-18T06:13:46;100553.69;;;8.25;76.08
75063;BME280;63981;51.052;13.754;2023-02-18T06:16:12;100593.31;;;8.38;76.93
75063;BME280;63981;51.052;13.754;2023-02-18T06:18:39;100593.41;;;8.37;78.34
75063;BME280;63981;51.052;13.754;2023-02-18T06:21:05;100598.59;;;8.38;78.54
75063;BME280;63981;51.052;13.754;2023-02-18T06:23:31;100565.81;;;8.45;77.78
75063;BME280;63981;51.052;13.754;2023-02-18T06:25:57;100553.00;;;8.22;78.59
75063;BME280;63981;51.052;13.754;2023-02-18T06:28:24;100599.16;;;8.26;80.03
75063;BME280;63981;51.052;13.754;2023-02-18T06:30:50;100595.22;;;8.17;80.00
75063;BME280;63981;51.052;13.754;2023-02-18T06:33:16;100591.91;;;8.14;79.97
75063;BME280;63981;51.052;13.754;2023-02-18T06:35:51;100592.44;;;8.03;81.40
75063;BME280;63981;51.052;13.754;2023-02-18T06:38:18;100592.75;;;7.97;82.78
75063;BME280;63981;51.052;13.754;2023-02-18T06:40:46;100587.44;;;7.98;81.68
75063;BME280;63981;51.052;13.754;2023-02-18T06:43:12;100567.41;;;7.79;83.81
75063;BME280;63981;51.052;13.754;2023-02-18T06:45:39;100587.50;;;7.97;83.54
75063;BME280;63981;51.052;13.754;2023-02-18T06:48:05;100587.34;;;8.00;83.23
75063;BME280;63981;51.052;13.754;2023-02-18T06:50:31;100585.94;;;7.93;82.96
75063;BME280;63981;51.052;13.754;2023-02-18T06:52:57;100581.25;;;7.82;84.92
75063;BME280;63981;51.052;13.754;2023-02-18T06:55:24;100547.00;;;7.66;86.16
75063;BME280;63981;51.052;13.754;2023-02-18T06:57:50;100573.56;;;7.78;84.48
75063;BME280;63981;51.052;13.754;2023-02-18T07:00:17;100584.91;;;7.78;85.19
75063;BME280;63981;51.052;13.754;2023-02-18T07:02:43;100578.75;;;7.79;86.22
75063;BME280;63981;51.052;13.754;2023-02-18T07:05:09;100564.09;;;7.75;85.51
75063;BME280;63981;51.052;13.754;2023-02-18T07:07:36;100543.47;;;7.67;86.97
75063;BME280;63981;51.052;13.754;2023-02-18T07:10:03;100564.41;;;7.86;87.76
75063;BME280;63981;51.052;13.754;2023-02-18T07:12:29;100542.47;;;7.70;87.06
75063;BME280;63981;51.052;13.754;2023-02-18T07:14:55;100567.56;;;7.93;85.86
75063;BME280;63981;51.052;13.754;2023-02-18T07:17:22;100568.81;;;8.03;85.83
75063;BME280;63981;51.052;13.754;2023-02-18T07:19:48;100558.63;;;7.97;86.46
75063;BME280;63981;51.052;13.754;2023-02-18T07:22:14;100542.31;;;7.90;87.91
75063;BME280;63981;51.052;13.754;2023-02-18T07:24:41;100549.16;;;7.94;88.32
75063;BME280;63981;51.052;13.754;2023-02-18T07:27:07;100550.84;;;7.95;87.98
75063;BME280;63981;51.052;13.754;2023-02-18T07:29:33;100554.22;;;7.97;87.02
75063;BME280;63981;51.052;13.754;2023-02-18T07:31:59;100536.38;;;8.04;87.69
75063;BME280;63981;51.052;13.754;2023-02-18T07:34:26;100537.00;;;7.92;87.48
75063;BME280;63981;51.052;13.754;2023-02-18T07:36:53;100525.72;;;7.90;88.27
75063;BME280;63981;51.052;13.754;2023-02-18T07:39:19;100534.44;;;7.90;87.91
75063;BME280;63981;51.052;13.754;2023-02-18T07:41:46;100486.91;;;7.62;89.18
75063;BME280;63981;51.052;13.754;2023-02-18T07:44:14;100518.53;;;7.93;88.65
75063;BME280;63981;51.052;13.754;2023-02-18T07:46:41;100504.13;;;7.85;88.62
75063;BME280;63981;51.052;13.754;2023-02-18T07:49:08;100502.19;;;7.88;88.30
75063;BME280;63981;51.052;13.754;2023-02-18T07:51:34;100502.97;;;7.90;89.97
75063;BME280;63981;51.052;13.754;2023-02-18T07:54:02;100473.66;;;7.82;90.29
75063;BME280;63981;51.052;13.754;2023-02-18T07:56:29;100489.22;;;7.85;89.51
75063;BME280;63981;51.052;13.754;2023-02-18T07:58:55;100477.56;;;7.91;89.24
75063;BME280;63981;51.052;13.754;2023-02-18T08:01:21;100499.16;;;8.13;88.35
75063;BME280;63981;51.052;13.754;2023-02-18T08:03:47;100504.28;;;7.99;89.71
75063;BME280;63981;51.052;13.754;2023-02-18T08:06:20;100474.63;;;7.80;89.86
75063;BME280;63981;51.052;13.754;2023-02-18T08:08:47;100464.28;;;7.77;90.09
75063;BME280;63981;51.052;13.754;2023-02-18T08:11:13;100432.50;;;7.83;89.90
75063;BME280;63981;51.052;13.754;2023-02-18T08:13:40;100479.56;;;8.20;89.60
75063;BME280;63981;51.052;13.754;2023-02-18T08:16:06;100472.91;;;8.13;89.74
75063;BME280;63981;51.052;13.754;2023-02-18T08:18:32;100462.66;;;8.09;90.99
75063;BME280;63981;51.052;13.754;2023-02-18T08:20:58;100464.94;;;8.15;90.78
75063;BME280;63981;51.052;13.754;2023-02-18T08:23:24;100472.28;;;8.25;89.52
75063;BME280;63981;51.052;13.754;2023-02-18T08:25:52;100468.47;;;8.31;90.33
75063;BME280;63981;51.052;13.754;2023-02-18T08:28:22;100451.34;;;8.24;90.41
75063;BME280;63981;51.052;13.754;2023-02-18T08:30:51;100450.22;;;8.45;89.93
75063;BME280;63981;51.052;13.754;2023-02-18T08:33:18;100418.28;;;8.37;89.72
75063;BME280;63981;51.052;13.754;2023-02-18T08:35:46;100440.97;;;8.38;89.21
75063;BME280;63981;51.052;13.754;2023-02-18T08:38:13;100442.69;;;8.39;89.50
75063;BME280;63981;51.052;13.754;2023-02-18T08:40:40;100434.72;;;8.56;89.56
75063;BME280;63981;51.052;13.754;2023-02-18T08:43:08;100428.53;;;8.57;89.46
75063;BME280;63981;51.052;13.754;2023-02-18T08:45:36;100419.22;;;8.83;88.56
75063;BME280;63981;51.052;13.754;2023-02-18T08:48:04;100391.16;;;8.52;88.64
75063;BME280;63981;51.052;13.754;2023-02-18T08:50:30;100378.78;;;8.39;89.37
75063;BME280;63981;51.052;13.754;2023-02-18T08:52:56;100425.31;;;8.68;89.19
75063;BME280;63981;51.052;13.754;2023-02-18T08:55:25;100413.78;;;8.55;88.87
75063;BME280;63981;51.052;13.754;2023-02-18T08:57:52;100384.84;;;8.08;89.74
75063;BME280;63981;51.052;13.754;2023-02-18T09:00:18;100395.41;;;8.55;89.34
75063;BME280;63981;51.052;13.754;2023-02-18T09:02:44;100403.38;;;8.38;88.87
75063;BME280;63981;51.052;13.754;2023-02-18T09:05:12;100367.88;;;7.97;89.86
75063;BME280;63981;51.052;13.754;2023-02-18T09:07:39;100386.47;;;8.26;89.39
75063;BME280;63981;51.052;13.754;2023-02-18T09:10:07;100319.25;;;7.90;89.93
75063;BME280;63981;51.052;13.754;2023-02-18T09:12:33;100356.28;;;8.17;90.24
75063;BME280;63981;51.052;13.754;2023-02-18T09:15:00;100368.53;;;8.34;89.98
75063;BME280;63981;51.052;13.754;2023-02-18T09:17:27;100366.28;;;8.26;89.49
75063;BME280;63981;51.052;13.754;2023-02-18T09:19:53;100355.81;;;8.42;89.32
75063;BME280;63981;51.052;13.754;2023-02-18T09:22:19;100364.47;;;8.76;89.42
75063;BME280;63981;51.052;13.754;2023-02-18T09:24:46;100330.03;;;8.33;89.23
75063;BME280;63981;51.052;13.754;2023-02-18T09:27:12;100353.19;;;8.74;88.95
75063;BME280;63981;51.052;13.754;2023-02-18T09:29:39;100352.97;;;8.93;88.64
75063;BME280;63981;51.052;13.754;2023-02-18T09:32:07;100346.59;;;8.51;89.40
75063;BME280;63981;51.052;13.754;2023-02-18T09:34:34;100291.91;;;8.57;89.05
75063;BME280;63981;51.052;13.754;2023-02-18T09:37:01;100317.63;;;8.82;88.61
75063;BME280;63981;51.052;13.754;2023-02-18T09:39:27;100321.41;;;9.23;88.13
75063;BME280;63981;51.052;13.754;2023-02-18T09:41:56;100316.78;;;9.42;87.50
75063;BME280;63981;51.052;13.754;2023-02-18T09:47:32;100317.03;;;9.37;87.04
75063;BME280;63981;51.052;13.754;2023-02-18T09:50:25;100292.25;;;9.41;86.77
75063;BME280;63981;51.052;13.754;2023-02-18T09:52:52;100299.88;;;9.60;86.05
75063;BME280;63981;51.052;13.754;2023-02-18T09:55:30;100298.16;;;9.45;85.93
75063;BME280;63981;51.052;13.754;2023-02-18T09:58:03;100279.94;;;9.56;86.08
75063;BME280;63981;51.052;13.754;2023-02-18T10:00:34;100290.56;;;9.83;86.15
75063;BME280;63981;51.052;13.754;2023-02-18T10:03:09;100292.25;;;9.98;86.16
75063;BME280;63981;51.052;13.754;2023-02-18T10:05:41;100274.78;;;10.39;84.53
75063;BME280;63981;51.052;13.754;2023-02-18T10:08:20;100276.66;;;11.03;81.68
75063;BME280;63981;51.052;13.754;2023-02-18T10:10:47;100259.91;;;11.30;80.22
75063;BME280;63981;51.052;13.754;2023-02-18T10:13:23;100249.56;;;11.27;80.69
75063;BME280;63981;51.052;13.754;2023-02-18T10:15:50;100258.09;;;11.30;79.93
75063;BME280;63981;51.052;13.754;2023-02-18T10:20:57;100247.53;;;11.05;82.08
75063;BME280;63981;51.052;13.754;2023-02-18T10:23:26;100243.66;;;11.36;81.51
75063;BME280;63981;51.052;13.754;2023-02-18T10:25:55;100251.97;;;11.68;80.20
75063;BME280;63981;51.052;13.754;2023-02-18T10:28:22;100235.47;;;11.77;78.58
75063;BME280;63981;51.052;13.754;2023-02-18T10:30:56;100225.03;;;11.75;79.68
75063;BME280;63981;51.052;13.754;2023-02-18T10:33:45;100216.88;;;11.91;78.58
75063;BME280;63981;51.052;13.754;2023-02-18T10:36:22;100226.91;;;11.99;77.61
75063;BME280;63981;51.052;13.754;2023-02-18T10:50:18;100170.84;;;12.06;77.25
75063;BME280;63981;51.052;13.754;2023-02-18T10:52:52;100199.88;;;12.43;76.78
75063;BME280;63981;51.052;13.754;2023-02-18T10:55:34;100190.59;;;12.37;77.36
75063;BME280;63981;51.052;13.754;2023-02-18T10:58:01;100180.75;;;12.39;77.54
75063;BME280;63981;51.052;13.754;2023-02-18T11:00:34;100167.97;;;12.68;75.39
75063;BME280;63981;51.052;13.754;2023-02-18T11:03:08;100153.19;;;12.66;75.69
75063;BME280;63981;51.052;13.754;2023-02-18T11:05:37;100155.69;;;12.56;76.03
75063;BME280;63981;51.052;13.754;2023-02-18T11:08:07;100133.34;;;12.72;74.71
75063;BME280;63981;51.052;13.754;2023-02-18T11:10:39;100118.28;;;12.38;76.40
75063;BME280;63981;51.052;13.754;2023-02-18T11:13:09;100134.63;;;13.35;73.30
75063;BME280;63981;51.052;13.754;2023-02-18T11:15:36;100138.41;;;13.86;70.65
75063;BME280;63981;51.052;13.754;2023-02-18T11:21:02;100111.53;;;13.25;71.93
75063;BME280;63981;51.052;13.754;2023-02-18T11:23:28;100094.19;;;13.10;72.57
75063;BME280;63981;51.052;13.754;2023-02-18T11:28:30;100092.88;;;13.38;71.06
75063;BME280;63981;51.052;13.754;2023-02-18T11:31:00;100096.25;;;13.18;71.57
75063;BME280;63981;51.052;13.754;2023-02-18T11:33:47;100095.19;;;13.20;71.24
75063;BME280;63981;51.052;13.754;2023-02-18T11:36:23;100075.81;;;13.74;68.52
75063;BME280;63981;51.052;13.754;2023-02-18T11:39:16;100065.41;;;13.94;66.95
75063;BME280;63981;51.052;13.754;2023-02-18T11:42:04;100079.06;;;13.67;67.78
75063;BME280;63981;51.052;13.754;2023-02-18T11:44:41;100070.94;;;13.91;67.92
75063;BME280;63981;51.052;13.754;2023-02-18T11:49:44;100072.31;;;13.74;67.62
75063;BME280;63981;51.052;13.754;2023-02-18T11:52:33;100064.97;;;13.34;68.99
75063;BME280;63981;51.052;13.754;2023-02-18T11:55:22;100045.59;;;13.34;68.05
75063;BME280;63981;51.052;13.754;2023-02-18T11:57:52;100054.09;;;13.48;67.95
75063;BME280;63981;51.052;13.754;2023-02-18T12:03:06;100032.34;;;13.45;67.83
75063;BME280;63981;51.052;13.754;2023-02-18T12:05:35;100047.56;;;13.52;68.68
75063;BME280;63981;51.052;13.754;2023-02-18T12:08:27;100016.31;;;13.46;68.35
75063;BME280;63981;51.052;13.754;2023-02-18T12:11:04;100040.56;;;13.31;69.37
75063;BME280;63981;51.052;13.754;2023-02-18T12:13:43;100010.59;;;12.74;71.39
75063;BME280;63981;51.052;13.754;2023-02-18T12:16:34;100041.75;;;13.26;70.45
75063;BME280;63981;51.052;13.754;2023-02-18T12:27:22;100051.25;;;12.95;71.49
75063;BME280;63981;51.052;13.754;2023-02-18T12:30:18;100029.13;;;13.08;71.28
75063;BME280;63981;51.052;13.754;2023-02-18T12:46:29;100042.09;;;12.99;70.18
75063;BME280;63981;51.052;13.754;2023-02-18T12:49:36;100044.53;;;12.80;70.52
75063;BME280;63981;51.052;13.754;2023-02-18T13:00:30;100044.84;;;13.86;69.70
75063;BME280;63981;51.052;13.754;2023-02-18T13:14:54;100010.25;;;12.90;68.43
75063;BME280;63981;51.052;13.754;2023-02-18T13:17:26;100041.50;;;13.07;68.58
75063;BME280;63981;51.052;13.754;2023-02-18T13:19:59;100034.78;;;12.81;67.67
75063;BME280;63981;51.052;13.754;2023-02-18T13:22:29;100029.50;;;13.03;67.15
75063;BME280;63981;51.052;13.754;2023-02-18T13:24:57;100007.72;;;12.99;66.29
75063;BME280;63981;51.052;13.754;2023-02-18T13:27:37;100023.84;;;13.94;63.18
75063;BME280;63981;51.052;13.754;2023-02-18T13:30:47;100035.75;;;13.68;63.70
75063;BME280;63981;51.052;13.754;2023-02-18T13:35:51;100032.84;;;12.60;65.81
75063;BME280;63981;51.052;13.754;2023-02-18T13:41:21;100026.50;;;12.05;67.72
75063;BME280;63981;51.052;13.754;2023-02-18T13:43:48;100032.59;;;11.95;68.91
75063;BME280;63981;51.052;13.754;2023-02-18T13:46:16;100058.03;;;11.96;68.86
75063;BME280;63981;51.052;13.754;2023-02-18T13:48:48;100056.75;;;11.77;70.72
75063;BME280;63981;51.052;13.754;2023-02-18T13:51:30;100055.88;;;11.90;70.20
75063;BME280;63981;51.052;13.754;2023-02-18T13:56:46;100047.28;;;12.79;65.97
75063;BME280;63981;51.052;13.754;2023-02-18T13:59:19;100052.59;;;12.21;67.10
75063;BME280;63981;51.052;13.754;2023-02-18T14:01:49;100047.75;;;12.04;67.41
75063;BME280;63981;51.052;13.754;2023-02-18T14:09:59;100052.50;;;12.34;65.39
75063;BME280;63981;51.052;13.754;2023-02-18T14:36:48;100028.38;;;11.92;65.80
75063;BME280;63981;51.052;13.754;2023-02-18T14:39:40;100048.75;;;11.66;66.42
75063;BME280;63981;51.052;13.754;2023-02-18T14:45:18;100062.56;;;11.70;66.56
75063;BME280;63981;51.052;13.754;2023-02-18T14:50:21;100016.91;;;11.57;65.69
75063;BME280;63981;51.052;13.754;2023-02-18T14:52:50;100059.63;;;11.74;65.88
75063;BME280;63981;51.052;13.754;2023-02-18T14:55:23;100056.69;;;11.66;65.87
75063;BME280;63981;51.052;13.754;2023-02-18T14:57:58;100073.88;;;11.48;67.48
75063;BME280;63981;51.052;13.754;2023-02-18T15:00:28;100069.28;;;11.63;67.34
75063;BME280;63981;51.052;13.754;2023-02-18T15:02:59;100076.41;;;11.49;67.37
75063;BME280;63981;51.052;13.754;2023-02-18T15:05:28;100092.78;;;11.42;68.35
75063;BME280;63981;51.052;13.754;2023-02-18T15:08:00;100107.09;;;11.14;71.11
75063;BME280;63981;51.052;13.754;2023-02-18T15:11:05;100102.16;;;11.09;72.30
75063;BME280;63981;51.052;13.754;2023-02-18T15:13:35;100104.06;;;10.82;74.30
75063;BME280;63981;51.052;13.754;2023-02-18T15:16:06;100071.88;;;10.39;74.48
75063;BME280;63981;51.052;13.754;2023-02-18T15:18:41;100083.63;;;10.20;76.14
75063;BME280;63981;51.052;13.754;2023-02-18T15:21:16;100101.19;;;10.47;76.17
75063;BME280;63981;51.052;13.754;2023-02-18T15:23:45;100089.50;;;10.51;75.76
75063;BME280;63981;51.052;13.754;2023-02-18T15:26:13;100090.03;;;10.56;75.78
75063;BME280;63981;51.052;13.754;2023-02-18T15:28:52;100090.34;;;10.51;75.33
75063;BME280;63981;51.052;13.754;2023-02-18T15:31:24;100096.13;;;10.31;76.35